Lithopolis, Ohio
Current Conditions -  °F | °C
As of 12:55 PM on Sunday 21 Dec 2014 (Local Time) from KLCK Reporting Station
Scattered Clouds Scattered Clouds  
Wind Chill: 35°   Ceiling: Unl
Heat Index: 35°   Visibility: 10mi
Dew Point: 23°   Wind: 3mph
Humidity: 63%   Direction: 90°E
Pressure: 30.26"   Gusts: NA
Location:  39.8°N, 82.81°W
Report Text: KLCK 211755Z AUTO 09003KT 10SM SCT026 01/M05 A3026 RMK AO2 T00141050
Loading
Personal Weather Stations






























Interactive Weather Map New forecast layout! Learn more

10-Day Weather Forecast

Advertisements
Track Severe Weather on mobile